createdAt,value
2019-02-16T00:00:52.486Z,8.40
2019-02-16T00:02:55.550Z,6.95
2019-02-16T00:04:59.268Z,6.90
2019-02-16T00:07:03.052Z,6.43
2019-02-16T00:09:06.732Z,6.85
2019-02-16T00:11:09.710Z,6.32
2019-02-16T00:13:12.637Z,5.97
2019-02-16T00:15:15.556Z,5.90
2019-02-16T00:17:18.532Z,5.87
2019-02-16T00:19:21.483Z,5.62
2019-02-16T00:21:24.403Z,6.07
2019-02-16T00:23:27.354Z,6.40
2019-02-16T00:25:30.269Z,5.97
2019-02-16T00:27:33.293Z,5.37
2019-02-16T00:29:37.096Z,5.62
2019-02-16T00:31:40.780Z,5.57
2019-02-16T00:33:44.476Z,6.10
2019-02-16T00:35:47.595Z,5.47
2019-02-16T00:37:51.390Z,5.40
2019-02-16T00:39:55.186Z,4.75
2019-02-16T00:41:59.420Z,6.25
2019-02-16T00:44:02.876Z,5.43
2019-02-16T00:46:06.577Z,4.78
2019-02-16T00:48:10.010Z,6.15
2019-02-16T00:50:12.925Z,5.60
2019-02-16T00:52:15.954Z,5.03
2019-02-16T00:54:19.675Z,5.00
2019-02-16T00:56:22.611Z,5.00
2019-02-16T00:58:25.528Z,4.87
2019-02-16T01:00:29.317Z,5.37
2019-02-16T01:02:33.004Z,5.10
2019-02-16T01:04:36.716Z,4.68
2019-02-16T01:06:41.151Z,4.70
2019-02-16T01:08:44.065Z,5.47
2019-02-16T01:10:46.988Z,4.68
2019-02-16T01:12:51.133Z,5.30
2019-02-16T01:14:54.191Z,3.87
2019-02-16T01:16:57.876Z,5.03
2019-02-16T01:19:00.825Z,5.30
2019-02-16T01:21:03.740Z,4.68
2019-02-16T01:23:06.661Z,4.95
2019-02-16T01:25:09.609Z,4.10
2019-02-16T01:27:14.028Z,4.15
2019-02-16T01:29:17.736Z,4.20
2019-02-16T01:31:21.538Z,3.90
2019-02-16T01:33:25.340Z,3.72
2019-02-16T01:35:29.024Z,4.07
2019-02-16T01:37:31.959Z,4.43
2019-02-16T01:39:34.871Z,2.92
2019-02-16T01:41:37.816Z,3.95
2019-02-16T01:43:41.216Z,5.12
2019-02-16T01:45:44.147Z,4.45
2019-02-16T01:47:47.101Z,5.07
2019-02-16T01:49:50.063Z,4.05
2019-02-16T01:51:55.127Z,5.62
2019-02-16T01:53:58.107Z,6.73
2019-02-16T01:56:01.248Z,6.53
2019-02-16T01:58:04.167Z,6.20
2019-02-16T02:00:07.188Z,6.40
2019-02-16T02:02:10.913Z,6.33
2019-02-16T02:04:13.836Z,6.25
2019-02-16T02:06:16.860Z,4.70
2019-02-16T02:08:19.796Z,6.30
2019-02-16T02:10:22.723Z,6.30
2019-02-16T02:12:26.408Z,4.93
2019-02-16T02:14:29.735Z,5.93
2019-02-16T02:16:32.667Z,5.75
2019-02-16T02:18:35.587Z,5.43
2019-02-16T02:20:38.541Z,5.22
2019-02-16T02:22:41.463Z,6.05
2019-02-16T02:24:44.380Z,5.57
2019-02-16T02:26:47.508Z,5.50
2019-02-16T02:28:51.199Z,5.53
2019-02-16T02:30:54.885Z,5.80
2019-02-16T02:32:58.096Z,5.35
2019-02-16T02:35:01.923Z,4.72
2019-02-16T02:37:04.812Z,4.70
2019-02-16T02:39:07.934Z,5.15
2019-02-16T02:41:10.820Z,5.12
2019-02-16T02:43:13.692Z,5.68
2019-02-16T02:45:16.605Z,5.65
2019-02-16T02:47:20.160Z,6.30
2019-02-16T02:49:23.067Z,5.50
2019-02-16T02:51:27.468Z,5.35
2019-02-16T02:53:31.573Z,4.67
2019-02-16T02:55:33.334Z,5.15
2019-02-16T02:57:36.322Z,4.78
2019-02-16T02:59:39.192Z,4.55
2019-02-16T03:01:42.400Z,5.00
2019-02-16T03:03:46.707Z,5.47
2019-02-16T03:05:49.585Z,3.97
2019-02-16T03:07:52.464Z,4.85
2019-02-16T03:09:55.450Z,4.57
2019-02-16T03:11:59.175Z,3.92
2019-02-16T03:14:02.804Z,4.00
2019-02-16T03:16:05.700Z,3.55
2019-02-16T03:18:08.581Z,3.70
2019-02-16T03:20:12.584Z,3.24
2019-02-16T03:22:16.458Z,3.15
2019-02-16T03:24:20.092Z,3.40
2019-02-16T03:26:31.704Z,3.10
2019-02-16T03:28:42.635Z,4.00
2019-02-16T03:30:50.088Z,2.90
2019-02-16T03:32:57.269Z,3.25
2019-02-16T03:35:09.599Z,3.73
2019-02-16T03:37:43.940Z,3.35
2019-02-16T03:39:47.384Z,3.05
2019-02-16T03:41:51.060Z,3.57
2019-02-16T03:43:54.040Z,3.20
2019-02-16T03:45:57.707Z,2.90
2019-02-16T03:48:01.464Z,3.70
2019-02-16T03:50:05.138Z,4.15
2019-02-16T03:52:13.966Z,5.28
2019-02-16T03:54:11.821Z,6.05
2019-02-16T03:56:14.805Z,4.28
2019-02-16T03:58:17.821Z,3.85
2019-02-16T04:00:21.077Z,3.85
2019-02-16T04:02:23.953Z,3.17
2019-02-16T04:04:26.950Z,4.57
2019-02-16T04:06:30.667Z,3.60
2019-02-16T04:08:34.643Z,2.95
2019-02-16T04:10:37.627Z,3.08
2019-02-16T04:12:40.744Z,3.80
2019-02-16T04:14:44.623Z,3.08
2019-02-16T04:16:48.011Z,4.30
2019-02-16T04:18:50.901Z,3.60
2019-02-16T04:20:54.966Z,4.10
2019-02-16T04:22:57.879Z,4.18
2019-02-16T04:25:00.999Z,4.68
2019-02-16T04:27:04.671Z,3.60
2019-02-16T04:29:07.652Z,3.13
2019-02-16T04:31:10.639Z,3.55
2019-02-16T04:33:13.621Z,3.17
2019-02-16T04:35:16.531Z,3.13
2019-02-16T04:37:20.682Z,3.40
2019-02-16T04:39:24.001Z,3.80
2019-02-16T04:41:27.089Z,3.50
2019-02-16T04:43:29.976Z,3.40
2019-02-16T04:45:32.960Z,3.30
2019-02-16T04:47:36.751Z,3.55
2019-02-16T04:49:39.731Z,3.53
2019-02-16T04:51:44.268Z,3.47
2019-02-16T04:53:47.956Z,3.65
2019-02-16T04:55:50.818Z,3.75
2019-02-16T04:57:53.680Z,3.30
2019-02-16T04:59:56.808Z,3.60
2019-02-16T05:01:59.676Z,3.85
2019-02-16T05:04:02.560Z,3.20
2019-02-16T05:06:05.462Z,4.03
2019-02-16T05:08:09.956Z,4.25
2019-02-16T05:10:12.952Z,3.90
2019-02-16T05:12:17.076Z,4.33
2019-02-16T05:14:20.387Z,3.70
2019-02-16T05:16:23.342Z,3.45
2019-02-16T05:18:26.986Z,3.97
2019-02-16T05:20:29.936Z,4.18
2019-02-16T05:22:33.608Z,3.30
2019-02-16T05:24:36.589Z,3.83
2019-02-16T05:26:39.578Z,3.80
2019-02-16T05:28:42.566Z,3.92
2019-02-16T05:30:45.772Z,4.30
2019-02-16T05:32:49.647Z,3.90
2019-02-16T05:34:53.499Z,4.90
2019-02-16T05:36:56.463Z,3.72
2019-02-16T05:39:00.143Z,4.00
2019-02-16T05:41:03.116Z,4.15
2019-02-16T05:43:06.105Z,4.22
2019-02-16T05:45:09.086Z,3.90
2019-02-16T05:47:11.963Z,4.65
2019-02-16T05:49:14.840Z,4.28
2019-02-16T05:51:19.273Z,5.25
2019-02-16T05:53:22.224Z,5.25
2019-02-16T05:55:25.460Z,4.50
2019-02-16T05:57:30.059Z,5.55
2019-02-16T05:59:32.934Z,4.65
2019-02-16T06:01:35.825Z,5.15
2019-02-16T06:03:38.723Z,4.93
2019-02-16T06:05:42.988Z,5.78
2019-02-16T06:07:45.904Z,4.35
2019-02-16T06:09:49.617Z,5.20
2019-02-16T06:11:54.187Z,4.95
2019-02-16T06:13:57.075Z,4.85
2019-02-16T06:16:00.657Z,4.30
2019-02-16T06:18:04.361Z,4.35
2019-02-16T06:20:07.236Z,4.90
2019-02-16T06:22:10.201Z,4.65
2019-02-16T06:24:13.139Z,5.45
2019-02-16T06:26:16.022Z,5.93
2019-02-16T06:28:19.130Z,4.90
2019-02-16T06:30:22.800Z,5.30
2019-02-16T06:32:25.683Z,5.00
2019-02-16T06:34:28.668Z,4.47
2019-02-16T06:36:31.541Z,4.93
2019-02-16T06:38:34.453Z,4.43
2019-02-16T06:40:38.137Z,5.10
2019-02-16T06:42:41.013Z,5.27
2019-02-16T06:44:43.932Z,4.40
2019-02-16T06:46:46.876Z,4.47
2019-02-16T06:48:49.763Z,5.30
2019-02-16T06:50:52.702Z,4.82
2019-02-16T06:52:55.608Z,5.25
2019-02-16T06:54:58.489Z,5.30
2019-02-16T06:57:02.172Z,4.95
2019-02-16T06:59:05.513Z,4.80
2019-02-16T07:01:09.144Z,5.45
2019-02-16T07:03:12.176Z,4.78
2019-02-16T07:05:15.972Z,4.70
2019-02-16T07:07:18.958Z,6.00
2019-02-16T07:09:21.843Z,4.80
2019-02-16T07:11:25.543Z,4.80
2019-02-16T07:13:29.491Z,4.32
2019-02-16T07:15:32.688Z,5.40
2019-02-16T07:17:37.972Z,5.05
2019-02-16T07:19:41.627Z,6.82
2019-02-16T07:21:45.291Z,6.70
2019-02-16T07:23:48.995Z,4.90
2019-02-16T07:25:51.945Z,6.07
2019-02-16T07:27:54.877Z,5.50
2019-02-16T07:29:57.785Z,5.40
2019-02-16T07:32:00.721Z,6.07
2019-02-16T07:34:03.796Z,7.00
2019-02-16T07:36:07.484Z,5.70
2019-02-16T07:38:10.360Z,7.10
2019-02-16T07:40:13.255Z,6.78
2019-02-16T07:42:16.967Z,6.72
2019-02-16T07:44:26.224Z,6.43
2019-02-16T07:46:31.313Z,6.10
2019-02-16T07:48:37.079Z,6.00
2019-02-16T07:50:44.228Z,5.37
2019-02-16T07:52:50.887Z,5.60
2019-02-16T07:55:00.580Z,5.90
2019-02-16T07:57:05.957Z,5.35
2019-02-16T07:59:09.375Z,6.15
2019-02-16T08:01:27.158Z,6.82
2019-02-16T08:03:31.772Z,6.37
2019-02-16T08:05:55.375Z,6.15
2019-02-16T08:07:59.236Z,6.05
2019-02-16T08:10:02.114Z,5.37
2019-02-16T08:12:08.627Z,5.80
2019-02-16T08:14:16.031Z,6.90
2019-02-16T08:16:22.071Z,6.22
2019-02-16T08:18:28.983Z,6.53
2019-02-16T08:20:34.266Z,6.60
2019-02-16T08:22:38.529Z,6.70
2019-02-16T08:24:43.108Z,7.45
2019-02-16T08:27:00.881Z,7.62
2019-02-16T08:29:11.221Z,7.93
2019-02-16T08:31:26.624Z,8.30
2019-02-16T08:33:33.356Z,7.60
2019-02-16T08:35:40.115Z,8.20
2019-02-16T08:37:58.756Z,7.60
2019-02-16T08:40:17.579Z,8.20
2019-02-16T08:42:22.120Z,8.93
2019-02-16T08:44:25.471Z,9.10
2019-02-16T08:46:34.160Z,9.35
2019-02-16T08:48:40.964Z,8.60
2019-02-16T08:50:48.450Z,8.47
2019-02-16T08:53:02.852Z,9.60
2019-02-16T08:55:21.496Z,9.40
2019-02-16T08:57:39.259Z,8.90
2019-02-16T08:59:43.808Z,9.00
2019-02-16T09:02:03.435Z,9.80
2019-02-16T09:04:07.749Z,10.00
2019-02-16T09:06:27.540Z,10.43
2019-02-16T09:08:31.911Z,8.73
2019-02-16T09:10:36.451Z,9.05
2019-02-16T09:12:54.946Z,9.47
2019-02-16T09:15:04.042Z,8.18
2019-02-16T09:17:09.585Z,8.50
2019-02-16T09:19:27.368Z,8.70
2019-02-16T09:21:46.508Z,9.77
2019-02-16T09:23:59.030Z,9.80
2019-02-16T09:26:08.892Z,9.60
2019-02-16T09:28:17.295Z,9.30
2019-02-16T09:30:23.548Z,9.23
2019-02-16T09:32:30.065Z,9.60
2019-02-16T09:34:35.747Z,9.75
2019-02-16T09:36:40.874Z,10.02
2019-02-16T09:38:49.186Z,9.98
2019-02-16T09:40:54.292Z,10.20
2019-02-16T09:43:14.374Z,9.95
2019-02-16T09:45:17.767Z,10.88
2019-02-16T09:47:22.607Z,9.80
2019-02-16T09:49:27.008Z,10.57
2019-02-16T09:51:34.495Z,10.10
2019-02-16T09:53:38.173Z,10.77
2019-02-16T09:55:56.770Z,11.27
2019-02-16T09:58:16.189Z,10.52
2019-02-16T10:00:22.570Z,11.10
2019-02-16T10:02:26.995Z,11.65
2019-02-16T10:04:31.038Z,10.35
2019-02-16T10:06:39.615Z,10.23
2019-02-16T10:08:48.294Z,9.60
2019-02-16T10:10:51.940Z,11.12
2019-02-16T10:13:00.531Z,10.95
2019-02-16T10:15:06.948Z,10.02
2019-02-16T10:17:10.109Z,11.50
2019-02-16T10:19:17.727Z,9.18
2019-02-16T10:21:24.264Z,11.07
2019-02-16T10:23:28.836Z,9.45
2019-02-16T10:25:36.680Z,10.05
2019-02-16T10:27:57.132Z,10.53
2019-02-16T10:30:00.883Z,11.43
2019-02-16T10:32:09.507Z,11.23
2019-02-16T10:34:15.020Z,10.25
2019-02-16T10:36:24.348Z,11.25
2019-02-16T10:38:28.390Z,11.07
2019-02-16T10:40:37.789Z,11.88
2019-02-16T10:42:56.538Z,11.20
2019-02-16T10:45:12.227Z,12.43
2019-02-16T10:47:20.496Z,12.43
2019-02-16T10:49:39.189Z,10.95
2019-02-16T10:51:52.847Z,11.52
2019-02-16T10:54:07.054Z,10.52
2019-02-16T10:56:25.705Z,9.80
2019-02-16T10:58:30.524Z,10.17
2019-02-16T11:00:39.435Z,10.83
2019-02-16T11:02:57.400Z,11.20
2019-02-16T11:05:03.998Z,10.30
2019-02-16T11:07:11.341Z,11.45
2019-02-16T11:09:14.240Z,10.98
2019-02-16T11:11:22.176Z,11.63
2019-02-16T11:13:25.068Z,12.25
2019-02-16T11:15:32.668Z,11.82
2019-02-16T11:17:43.059Z,10.15
2019-02-16T11:19:47.379Z,12.00
2019-02-16T11:22:11.790Z,11.70
2019-02-16T11:24:21.109Z,11.77
2019-02-16T11:26:41.450Z,10.40
2019-02-16T11:28:50.025Z,11.40
2019-02-16T11:30:53.724Z,10.50
2019-02-16T11:32:57.395Z,12.02
2019-02-16T11:35:14.996Z,11.10
2019-02-16T11:37:18.360Z,10.63
2019-02-16T11:39:24.135Z,11.82
2019-02-16T11:41:27.531Z,12.13
2019-02-16T11:43:47.188Z,13.50
2019-02-16T11:45:50.083Z,11.73
2019-02-16T11:48:07.877Z,11.53
2019-02-16T11:50:16.536Z,11.63
2019-02-16T11:52:36.093Z,11.67
2019-02-16T11:54:45.682Z,11.50
2019-02-16T11:57:00.703Z,10.93
2019-02-16T11:59:24.093Z,12.37
2019-02-16T12:01:27.809Z,11.03
2019-02-16T12:03:48.171Z,12.10
2019-02-16T12:05:54.617Z,12.53
2019-02-16T12:08:00.971Z,11.13
2019-02-16T12:10:20.590Z,12.30
2019-02-16T12:12:29.192Z,11.27
2019-02-16T12:14:32.210Z,12.53
2019-02-16T12:16:38.751Z,13.87
2019-02-16T12:18:48.212Z,12.80
2019-02-16T12:21:05.991Z,14.77
2019-02-16T12:23:08.908Z,12.67
2019-02-16T12:25:19.139Z,13.47
2019-02-16T12:27:40.840Z,12.57
2019-02-16T12:29:49.596Z,11.93
2019-02-16T12:32:08.137Z,13.60
2019-02-16T12:34:27.677Z,12.13
2019-02-16T12:36:32.565Z,13.33
2019-02-16T12:38:51.109Z,13.47
2019-02-16T12:40:54.958Z,13.37
2019-02-16T12:43:03.539Z,13.50
2019-02-16T12:45:09.832Z,13.27
2019-02-16T12:47:27.632Z,13.70
2019-02-16T12:49:35.456Z,12.10
2019-02-16T12:51:42.041Z,13.50
2019-02-16T12:53:50.803Z,13.10
2019-02-16T12:55:57.839Z,13.80
2019-02-16T12:58:06.752Z,14.30
2019-02-16T13:00:12.108Z,13.67
2019-02-16T13:02:19.128Z,14.63
2019-02-16T13:04:40.023Z,13.90
2019-02-16T13:07:01.244Z,11.57
2019-02-16T13:09:04.959Z,12.90
2019-02-16T13:11:14.023Z,10.90
2019-02-16T13:13:16.910Z,10.93
2019-02-16T13:15:32.315Z,12.23
2019-02-16T13:17:38.964Z,11.00
2019-02-16T13:19:55.487Z,11.10
2019-02-16T13:22:02.088Z,13.20
2019-02-16T13:24:07.456Z,12.80
2019-02-16T13:26:10.379Z,12.90
2019-02-16T13:28:31.952Z,12.30
2019-02-16T13:30:35.793Z,12.77
2019-02-16T13:32:44.892Z,12.60
2019-02-16T13:34:48.414Z,12.77
2019-02-16T13:37:02.015Z,11.70
2019-02-16T13:39:20.683Z,11.53
2019-02-16T13:41:41.091Z,13.00
2019-02-16T13:43:44.727Z,12.97
2019-02-16T13:45:47.652Z,12.10
2019-02-16T13:47:52.952Z,13.40
2019-02-16T13:49:59.372Z,13.70
2019-02-16T13:52:14.846Z,13.37
2019-02-16T13:54:21.618Z,13.40
2019-02-16T13:56:43.914Z,14.60
2019-02-16T13:58:50.251Z,12.83
2019-02-16T14:00:57.944Z,12.73
2019-02-16T14:03:02.630Z,12.77
2019-02-16T14:05:08.135Z,11.75
2019-02-16T14:07:11.812Z,12.13
2019-02-16T14:09:31.587Z,13.70
2019-02-16T14:11:36.653Z,10.93
2019-02-16T14:13:40.358Z,12.90
2019-02-16T14:15:44.753Z,13.20
2019-02-16T14:17:48.537Z,12.17
2019-02-16T14:19:51.490Z,11.40
2019-02-16T14:21:55.131Z,13.00
2019-02-16T14:23:58.016Z,12.43
2019-02-16T14:26:01.124Z,13.90
2019-02-16T14:28:05.461Z,12.20
2019-02-16T14:30:10.052Z,14.17
2019-02-16T14:32:13.357Z,14.20
2019-02-16T14:34:17.060Z,11.00
2019-02-16T14:36:20.720Z,11.40
2019-02-16T14:38:33.595Z,14.83
2019-02-16T14:40:37.872Z,13.73
2019-02-16T14:42:41.469Z,14.50
2019-02-16T14:44:45.173Z,13.00
2019-02-16T14:46:48.504Z,12.90
2019-02-16T14:48:51.752Z,13.27
2019-02-16T14:50:56.264Z,13.17
2019-02-16T14:52:59.776Z,14.63
2019-02-16T14:55:03.465Z,12.33
2019-02-16T14:57:07.987Z,13.60
2019-02-16T14:59:11.652Z,13.23
2019-02-16T15:01:14.551Z,13.50
2019-02-16T15:03:17.556Z,14.80
2019-02-16T15:05:21.244Z,12.17
2019-02-16T15:07:25.168Z,14.20
2019-02-16T15:09:28.852Z,13.27
2019-02-16T15:11:32.514Z,12.47
2019-02-16T15:13:35.436Z,12.33
2019-02-16T15:15:39.239Z,13.80
2019-02-16T15:17:42.899Z,14.77
2019-02-16T15:19:45.825Z,12.33
2019-02-16T15:21:49.620Z,12.68
2019-02-16T15:23:52.600Z,12.23
2019-02-16T15:26:00.997Z,11.10
2019-02-16T15:27:59.180Z,10.83
2019-02-16T15:30:02.063Z,12.43
2019-02-16T15:32:05.731Z,10.20
2019-02-16T15:34:08.654Z,11.30
2019-02-16T15:36:12.622Z,11.23
2019-02-16T15:38:15.512Z,10.33
2019-02-16T15:40:19.932Z,12.83
2019-02-16T15:42:23.719Z,12.33
2019-02-16T15:44:26.621Z,13.87
2019-02-16T15:46:29.538Z,13.17
2019-02-16T15:48:32.965Z,14.33
2019-02-16T15:50:35.865Z,15.80
2019-02-16T15:52:38.879Z,14.87
2019-02-16T15:54:42.539Z,13.77
2019-02-16T15:56:45.459Z,13.13
2019-02-16T15:58:49.178Z,13.73
2019-02-16T16:00:53.599Z,14.40
2019-02-16T16:02:56.459Z,12.37
2019-02-16T16:04:59.368Z,13.67
2019-02-16T16:07:02.273Z,14.60
2019-02-16T16:09:05.151Z,13.60
2019-02-16T16:11:08.478Z,12.85
2019-02-16T16:13:12.992Z,13.10
2019-02-16T16:15:22.293Z,12.97
2019-02-16T16:17:31.043Z,13.30
2019-02-16T16:19:34.384Z,14.97
2019-02-16T16:21:52.176Z,13.67
2019-02-16T16:24:14.193Z,13.10
2019-02-16T16:26:20.002Z,12.50
2019-02-16T16:28:24.519Z,13.37
2019-02-16T16:30:29.072Z,14.23
2019-02-16T16:32:42.750Z,13.77
2019-02-16T16:34:52.936Z,12.83
2019-02-16T16:36:58.729Z,12.37
2019-02-16T16:39:07.244Z,13.23
2019-02-16T16:41:29.821Z,12.80
2019-02-16T16:43:32.755Z,14.17
2019-02-16T16:45:50.644Z,13.83
2019-02-16T16:48:04.364Z,12.98
2019-02-16T16:50:19.517Z,11.20
2019-02-16T16:52:39.325Z,12.27
2019-02-16T16:54:42.235Z,11.93
2019-02-16T16:56:48.490Z,11.93
2019-02-16T16:58:53.030Z,11.73
2019-02-16T17:01:00.567Z,10.73
2019-02-16T17:03:09.240Z,12.90
2019-02-16T17:05:13.903Z,15.10
2019-02-16T17:07:17.504Z,15.80
2019-02-16T17:09:36.727Z,19.03
2019-02-16T17:11:58.124Z,18.30
2019-02-16T17:14:18.777Z,17.53
2019-02-16T17:16:36.472Z,17.00
2019-02-16T17:18:54.300Z,17.53
2019-02-16T17:21:01.651Z,18.23
2019-02-16T17:23:14.502Z,18.67
2019-02-16T17:25:21.193Z,17.97
2019-02-16T17:27:33.428Z,17.33
2019-02-16T17:29:36.764Z,18.00
2019-02-16T17:31:41.151Z,17.90
2019-02-16T17:34:04.667Z,18.40
2019-02-16T17:36:09.961Z,17.47
2019-02-16T17:38:23.597Z,18.70
2019-02-16T17:40:37.213Z,22.93
2019-02-16T17:42:55.852Z,22.80
2019-02-16T17:45:16.510Z,21.73
2019-02-16T17:47:37.741Z,19.17
2019-02-16T17:49:56.330Z,19.60
2019-02-16T17:52:18.567Z,17.63
2019-02-16T17:54:21.228Z,16.50
2019-02-16T17:56:46.566Z,18.20
2019-02-16T17:58:45.512Z,21.73
2019-02-16T18:01:03.291Z,21.17
2019-02-16T18:03:07.357Z,18.20
2019-02-16T18:05:13.166Z,20.70
2019-02-16T18:07:18.632Z,19.80
2019-02-16T18:09:21.629Z,17.50
2019-02-16T18:11:39.821Z,18.43
2019-02-16T18:13:44.355Z,18.13
2019-02-16T18:15:52.855Z,14.97
2019-02-16T18:17:56.515Z,16.27
2019-02-16T18:19:59.434Z,15.63
2019-02-16T18:22:07.614Z,15.70
2019-02-16T18:24:16.049Z,12.70
2019-02-16T18:26:24.924Z,12.50
2019-02-16T18:28:39.144Z,11.83
2019-02-16T18:30:42.052Z,13.60
2019-02-16T18:32:47.635Z,13.75
2019-02-16T18:35:08.026Z,14.50
2019-02-16T18:37:10.905Z,12.23
2019-02-16T18:39:29.436Z,12.50
2019-02-16T18:41:34.938Z,14.05
2019-02-16T18:43:37.848Z,12.70
2019-02-16T18:45:43.648Z,14.27
2019-02-16T18:47:53.192Z,15.37
2019-02-16T18:50:11.764Z,14.10
2019-02-16T18:52:21.400Z,16.03
2019-02-16T18:54:24.729Z,17.00
2019-02-16T18:56:29.182Z,18.00
2019-02-16T18:58:52.282Z,15.52
2019-02-16T19:01:10.078Z,16.85
2019-02-16T19:03:23.807Z,15.57
2019-02-16T19:05:33.781Z,17.27
2019-02-16T19:07:37.623Z,16.53
2019-02-16T19:09:44.204Z,15.53
2019-02-16T19:11:53.041Z,13.65
2019-02-16T19:13:57.378Z,14.68
2019-02-16T19:16:21.044Z,13.50
2019-02-16T19:18:29.485Z,12.13
2019-02-16T19:20:45.150Z,13.80
2019-02-16T19:22:53.832Z,14.17
2019-02-16T19:24:57.637Z,13.27
2019-02-16T19:27:16.126Z,12.70
2019-02-16T19:29:12.789Z,14.20
2019-02-16T19:31:18.474Z,12.75
2019-02-16T19:33:21.364Z,12.75
2019-02-16T19:35:24.255Z,13.73
2019-02-16T19:37:42.055Z,13.90
2019-02-16T19:39:51.589Z,12.07
2019-02-16T19:41:56.913Z,12.98
2019-02-16T19:43:59.844Z,13.27
2019-02-16T19:46:18.446Z,12.20
2019-02-16T19:48:24.987Z,12.17
2019-02-16T19:50:45.689Z,11.37
2019-02-16T19:52:54.288Z,14.20
2019-02-16T19:54:59.131Z,11.97
2019-02-16T19:57:03.864Z,11.87
2019-02-16T19:59:08.732Z,12.13
2019-02-16T20:01:17.296Z,12.83
2019-02-16T20:03:23.940Z,10.60
2019-02-16T20:05:42.655Z,8.93
2019-02-16T20:07:48.418Z,9.65
2019-02-16T20:10:10.100Z,10.10
2019-02-16T20:12:27.534Z,8.90
2019-02-16T20:14:42.909Z,9.93
2019-02-16T20:16:48.432Z,9.23
2019-02-16T20:18:56.149Z,11.60
2019-02-16T20:21:05.622Z,12.25
2019-02-16T20:23:23.388Z,11.25
2019-02-16T20:25:27.474Z,14.03
2019-02-16T20:27:37.392Z,12.90
2019-02-16T20:29:34.421Z,11.68
2019-02-16T20:31:37.743Z,10.98
2019-02-16T20:33:50.550Z,11.10
2019-02-16T20:36:12.153Z,10.37
2019-02-16T20:38:15.873Z,13.32
2019-02-16T20:40:20.250Z,12.60
2019-02-16T20:42:23.335Z,11.80
2019-02-16T20:44:30.764Z,13.50
2019-02-16T20:46:37.160Z,14.60
2019-02-16T20:48:41.301Z,12.65
2019-02-16T20:50:45.099Z,11.33
2019-02-16T20:53:06.012Z,12.30
2019-02-16T20:55:12.814Z,10.57
2019-02-16T20:57:31.255Z,11.02
2019-02-16T20:59:34.469Z,14.30
2019-02-16T21:01:38.166Z,12.73
2019-02-16T21:03:41.591Z,12.73
2019-02-16T21:05:46.237Z,12.30
2019-02-16T21:07:52.091Z,11.33
2019-02-16T21:09:59.764Z,11.05
2019-02-16T21:12:22.192Z,11.05
2019-02-16T21:14:36.581Z,11.20
2019-02-16T21:16:45.305Z,9.07
2019-02-16T21:19:03.079Z,9.93
2019-02-16T21:21:21.623Z,11.47
2019-02-16T21:23:41.022Z,12.73
2019-02-16T21:26:01.463Z,12.47
2019-02-16T21:28:06.938Z,11.47
2019-02-16T21:30:13.456Z,11.30
2019-02-16T21:32:17.955Z,11.32
2019-02-16T21:34:20.857Z,11.63
2019-02-16T21:36:27.590Z,12.30
2019-02-16T21:38:46.240Z,11.45
2019-02-16T21:40:53.536Z,11.17
2019-02-16T21:43:02.524Z,10.48
2019-02-16T21:45:10.573Z,10.10
2019-02-16T21:47:29.969Z,10.55
2019-02-16T21:49:32.950Z,11.40
2019-02-16T21:51:41.858Z,10.50
2019-02-16T21:53:45.360Z,10.45
2019-02-16T21:55:48.692Z,9.07
2019-02-16T21:58:08.348Z,9.43
2019-02-16T22:00:24.478Z,10.05
2019-02-16T22:02:43.735Z,9.48
2019-02-16T22:04:50.008Z,8.63
2019-02-16T22:06:58.636Z,8.32
2019-02-16T22:09:07.403Z,9.35
2019-02-16T22:11:16.107Z,9.18
2019-02-16T22:13:19.283Z,9.07
2019-02-16T22:15:22.838Z,9.57
2019-02-16T22:17:26.475Z,8.05
2019-02-16T22:19:30.097Z,9.70
2019-02-16T22:21:33.080Z,8.15
2019-02-16T22:23:35.960Z,9.05
2019-02-16T22:25:38.844Z,10.35
2019-02-16T22:27:41.768Z,9.80
2019-02-16T22:29:45.407Z,9.65
2019-02-16T22:31:48.332Z,10.88
2019-02-16T22:33:52.143Z,10.82
2019-02-16T22:35:55.101Z,10.52
2019-02-16T22:37:58.104Z,11.17
2019-02-16T22:40:01.888Z,10.10
2019-02-16T22:42:05.584Z,9.50
2019-02-16T22:44:09.240Z,9.05
2019-02-16T22:46:12.276Z,10.48
2019-02-16T22:48:16.676Z,9.02
2019-02-16T22:50:19.559Z,10.30
2019-02-16T22:52:22.560Z,10.80
2019-02-16T22:54:26.275Z,9.25
2019-02-16T22:56:29.951Z,9.73
2019-02-16T22:58:32.876Z,10.25
2019-02-16T23:00:35.759Z,10.38
2019-02-16T23:02:38.645Z,12.37
2019-02-16T23:04:41.558Z,10.52
2019-02-16T23:06:44.481Z,10.88
2019-02-16T23:08:48.960Z,9.80
2019-02-16T23:10:52.256Z,10.20
2019-02-16T23:12:55.243Z,9.88
2019-02-16T23:14:58.119Z,10.20
2019-02-16T23:17:01.417Z,10.05
2019-02-16T23:19:04.326Z,10.48
2019-02-16T23:21:07.978Z,9.50
2019-02-16T23:23:10.873Z,9.40
2019-02-16T23:25:13.760Z,7.97
2019-02-16T23:27:16.694Z,10.80
2019-02-16T23:29:19.618Z,10.13
2019-02-16T23:31:22.642Z,10.00
2019-02-16T23:33:26.457Z,10.07
2019-02-16T23:35:29.620Z,10.73
2019-02-16T23:37:33.271Z,10.32
2019-02-16T23:39:36.492Z,10.57
2019-02-16T23:41:40.184Z,10.32
2019-02-16T23:43:43.837Z,10.32
2019-02-16T23:45:46.777Z,9.60
2019-02-16T23:47:51.264Z,10.68
2019-02-16T23:49:54.156Z,9.43
2019-02-16T23:51:57.459Z,10.60
2019-02-16T23:54:01.633Z,11.12
2019-02-16T23:56:04.548Z,10.25
2019-02-16T23:58:08.244Z,9.10
